Terminal Aerodrome Forecast
Issued by NWS

Home | Current Version | Previous Version | Text Only | Print | Product List | Glossary On
Versions: 1 2 3 4 5 6 7 8 9 10 11 12 13 14
000
FTUS44 KCRP 051130
TAFALI
TAF
KALI 051130Z 0512/0612 VRB03KT 6SM BR FEW015
      TEMPO 0512/0514 3SM BR BKN015
     FM051500 16012G18KT P6SM SCT025
     FM052000 13015G22KT P6SM SCT050
     FM060200 14008KT P6SM FEW025
     FM060800 15005KT P6SM BKN015=

USA.gov is the U.S. government's official web portal to all federal, state and local government web resources and services.